sensor_id;sensor_type;location;lat;lon;timestamp;P1;durP1;ratioP1;P2;durP2;ratioP2
40373;SDS011;26079;45.958;12.492;2023-06-22T00:02:21;28.02;;;25.50;;
40373;SDS011;26079;45.958;12.492;2023-06-22T00:04:47;30.30;;;27.17;;
40373;SDS011;26079;45.958;12.492;2023-06-22T00:07:13;31.13;;;27.98;;
40373;SDS011;26079;45.958;12.492;2023-06-22T00:09:38;29.98;;;26.83;;
40373;SDS011;26079;45.958;12.492;2023-06-22T00:12:04;29.75;;;26.58;;
40373;SDS011;26079;45.958;12.492;2023-06-22T00:14:30;29.33;;;26.60;;
40373;SDS011;26079;45.958;12.492;2023-06-22T00:16:56;29.23;;;26.63;;
40373;SDS011;26079;45.958;12.492;2023-06-22T00:19:24;29.65;;;26.77;;
40373;SDS011;26079;45.958;12.492;2023-06-22T00:21:50;29.70;;;27.00;;
40373;SDS011;26079;45.958;12.492;2023-06-22T00:24:19;31.20;;;26.75;;
40373;SDS011;26079;45.958;12.492;2023-06-22T00:26:45;28.50;;;25.75;;
40373;SDS011;26079;45.958;12.492;2023-06-22T00:29:12;26.27;;;23.80;;
40373;SDS011;26079;45.958;12.492;2023-06-22T00:31:38;26.88;;;24.00;;
40373;SDS011;26079;45.958;12.492;2023-06-22T00:34:03;29.13;;;26.02;;
40373;SDS011;26079;45.958;12.492;2023-06-22T00:36:33;26.85;;;24.25;;
40373;SDS011;26079;45.958;12.492;2023-06-22T00:38:59;29.45;;;24.85;;
40373;SDS011;26079;45.958;12.492;2023-06-22T00:41:25;26.85;;;23.55;;
40373;SDS011;26079;45.958;12.492;2023-06-22T00:43:53;26.52;;;24.23;;
40373;SDS011;26079;45.958;12.492;2023-06-22T00:46:19;27.15;;;24.55;;
40373;SDS011;26079;45.958;12.492;2023-06-22T00:48:47;26.00;;;23.30;;
40373;SDS011;26079;45.958;12.492;2023-06-22T00:51:13;25.67;;;23.27;;
40373;SDS011;26079;45.958;12.492;2023-06-22T00:53:39;26.02;;;23.55;;
40373;SDS011;26079;45.958;12.492;2023-06-22T00:56:06;26.08;;;23.65;;
40373;SDS011;26079;45.958;12.492;2023-06-22T00:58:34;25.88;;;23.40;;
40373;SDS011;26079;45.958;12.492;2023-06-22T01:01:01;24.77;;;22.67;;
40373;SDS011;26079;45.958;12.492;2023-06-22T01:03:27;34.22;;;24.48;;
40373;SDS011;26079;45.958;12.492;2023-06-22T01:05:53;25.25;;;22.98;;
40373;SDS011;26079;45.958;12.492;2023-06-22T01:11:13;25.38;;;22.80;;
40373;SDS011;26079;45.958;12.492;2023-06-22T01:14:00;23.85;;;21.58;;
40373;SDS011;26079;45.958;12.492;2023-06-22T01:16:33;32.33;;;23.10;;
40373;SDS011;26079;45.958;12.492;2023-06-22T01:19:01;25.48;;;22.90;;
40373;SDS011;26079;45.958;12.492;2023-06-22T01:21:51;23.73;;;21.65;;
40373;SDS011;26079;45.958;12.492;2023-06-22T01:25:20;25.25;;;23.02;;
40373;SDS011;26079;45.958;12.492;2023-06-22T01:29:55;23.08;;;20.73;;
40373;SDS011;26079;45.958;12.492;2023-06-22T01:32:29;22.80;;;20.70;;
40373;SDS011;26079;45.958;12.492;2023-06-22T01:34:58;24.60;;;22.02;;
40373;SDS011;26079;45.958;12.492;2023-06-22T01:37:26;27.40;;;22.42;;
40373;SDS011;26079;45.958;12.492;2023-06-22T01:39:53;24.33;;;22.27;;
40373;SDS011;26079;45.958;12.492;2023-06-22T01:42:22;25.83;;;23.48;;
40373;SDS011;26079;45.958;12.492;2023-06-22T01:44:49;24.10;;;22.13;;
40373;SDS011;26079;45.958;12.492;2023-06-22T01:47:17;24.55;;;22.20;;
40373;SDS011;26079;45.958;12.492;2023-06-22T01:49:43;25.80;;;22.52;;
40373;SDS011;26079;45.958;12.492;2023-06-22T01:52:09;23.70;;;21.67;;
40373;SDS011;26079;45.958;12.492;2023-06-22T01:54:36;24.15;;;22.10;;
40373;SDS011;26079;45.958;12.492;2023-06-22T01:57:03;27.42;;;24.40;;
40373;SDS011;26079;45.958;12.492;2023-06-22T01:59:31;28.02;;;25.30;;
40373;SDS011;26079;45.958;12.492;2023-06-22T02:02:07;26.52;;;24.08;;
40373;SDS011;26079;45.958;12.492;2023-06-22T02:04:43;27.20;;;23.10;;
40373;SDS011;26079;45.958;12.492;2023-06-22T02:07:17;29.33;;;24.42;;
40373;SDS011;26079;45.958;12.492;2023-06-22T02:09:46;25.42;;;23.23;;
40373;SDS011;26079;45.958;12.492;2023-06-22T02:12:17;28.25;;;24.40;;
40373;SDS011;26079;45.958;12.492;2023-06-22T02:14:46;28.33;;;25.77;;
40373;SDS011;26079;45.958;12.492;2023-06-22T02:17:13;29.10;;;26.25;;
40373;SDS011;26079;45.958;12.492;2023-06-22T02:19:42;27.05;;;24.75;;
40373;SDS011;26079;45.958;12.492;2023-06-22T02:22:08;30.45;;;27.20;;
40373;SDS011;26079;45.958;12.492;2023-06-22T02:24:34;29.13;;;26.52;;
40373;SDS011;26079;45.958;12.492;2023-06-22T02:27:00;29.48;;;26.88;;
40373;SDS011;26079;45.958;12.492;2023-06-22T02:29:27;30.42;;;27.52;;
40373;SDS011;26079;45.958;12.492;2023-06-22T02:31:53;31.25;;;28.20;;
40373;SDS011;26079;45.958;12.492;2023-06-22T02:34:20;30.58;;;27.30;;
40373;SDS011;26079;45.958;12.492;2023-06-22T02:36:47;31.27;;;27.85;;
40373;SDS011;26079;45.958;12.492;2023-06-22T02:39:20;34.83;;;29.58;;
40373;SDS011;26079;45.958;12.492;2023-06-22T02:41:48;29.75;;;27.35;;
40373;SDS011;26079;45.958;12.492;2023-06-22T02:44:14;29.20;;;26.30;;
40373;SDS011;26079;45.958;12.492;2023-06-22T02:46:40;29.48;;;26.75;;
40373;SDS011;26079;45.958;12.492;2023-06-22T02:49:06;28.98;;;26.05;;
40373;SDS011;26079;45.958;12.492;2023-06-22T02:51:35;29.35;;;26.42;;
40373;SDS011;26079;45.958;12.492;2023-06-22T02:54:04;31.15;;;28.45;;
40373;SDS011;26079;45.958;12.492;2023-06-22T02:56:32;30.63;;;27.48;;
40373;SDS011;26079;45.958;12.492;2023-06-22T02:58:58;30.27;;;27.13;;
40373;SDS011;26079;45.958;12.492;2023-06-22T03:01:29;28.92;;;26.48;;
40373;SDS011;26079;45.958;12.492;2023-06-22T03:03:56;29.20;;;26.50;;
40373;SDS011;26079;45.958;12.492;2023-06-22T03:06:22;28.73;;;25.38;;
40373;SDS011;26079;45.958;12.492;2023-06-22T03:08:51;30.10;;;26.95;;
40373;SDS011;26079;45.958;12.492;2023-06-22T03:11:17;29.25;;;26.33;;
40373;SDS011;26079;45.958;12.492;2023-06-22T03:13:43;30.02;;;26.23;;
40373;SDS011;26079;45.958;12.492;2023-06-22T03:16:10;28.88;;;25.92;;
40373;SDS011;26079;45.958;12.492;2023-06-22T03:18:36;30.55;;;27.80;;
40373;SDS011;26079;45.958;12.492;2023-06-22T03:21:01;32.50;;;29.15;;
40373;SDS011;26079;45.958;12.492;2023-06-22T03:23:27;30.25;;;27.45;;
40373;SDS011;26079;45.958;12.492;2023-06-22T03:25:53;31.75;;;28.75;;
40373;SDS011;26079;45.958;12.492;2023-06-22T03:28:21;30.52;;;27.33;;
40373;SDS011;26079;45.958;12.492;2023-06-22T03:30:46;28.10;;;25.60;;
40373;SDS011;26079;45.958;12.492;2023-06-22T03:33:12;26.40;;;24.10;;
40373;SDS011;26079;45.958;12.492;2023-06-22T03:35:38;27.00;;;24.60;;
40373;SDS011;26079;45.958;12.492;2023-06-22T03:38:04;26.08;;;23.73;;
40373;SDS011;26079;45.958;12.492;2023-06-22T03:40:29;36.97;;;24.75;;
40373;SDS011;26079;45.958;12.492;2023-06-22T03:42:55;25.58;;;23.25;;
40373;SDS011;26079;45.958;12.492;2023-06-22T03:45:21;26.98;;;24.67;;
40373;SDS011;26079;45.958;12.492;2023-06-22T03:47:46;25.33;;;23.10;;
40373;SDS011;26079;45.958;12.492;2023-06-22T03:50:12;24.85;;;22.17;;
40373;SDS011;26079;45.958;12.492;2023-06-22T03:52:39;29.40;;;24.45;;
40373;SDS011;26079;45.958;12.492;2023-06-22T03:55:06;24.65;;;22.20;;
40373;SDS011;26079;45.958;12.492;2023-06-22T03:57:32;25.33;;;23.00;;
40373;SDS011;26079;45.958;12.492;2023-06-22T03:59:58;29.27;;;22.08;;
40373;SDS011;26079;45.958;12.492;2023-06-22T04:02:25;24.80;;;22.65;;
40373;SDS011;26079;45.958;12.492;2023-06-22T04:04:50;25.80;;;23.50;;
40373;SDS011;26079;45.958;12.492;2023-06-22T04:07:16;25.30;;;22.90;;
40373;SDS011;26079;45.958;12.492;2023-06-22T04:09:43;26.35;;;23.75;;
40373;SDS011;26079;45.958;12.492;2023-06-22T04:12:09;24.10;;;21.80;;
40373;SDS011;26079;45.958;12.492;2023-06-22T04:14:34;24.00;;;21.88;;
40373;SDS011;26079;45.958;12.492;2023-06-22T04:17:00;26.60;;;22.38;;
40373;SDS011;26079;45.958;12.492;2023-06-22T04:19:26;21.88;;;19.63;;
40373;SDS011;26079;45.958;12.492;2023-06-22T04:21:52;24.90;;;22.55;;
40373;SDS011;26079;45.958;12.492;2023-06-22T04:24:18;23.80;;;21.17;;
40373;SDS011;26079;45.958;12.492;2023-06-22T04:26:43;23.67;;;21.33;;
40373;SDS011;26079;45.958;12.492;2023-06-22T04:29:10;22.45;;;20.35;;
40373;SDS011;26079;45.958;12.492;2023-06-22T04:31:36;23.90;;;21.58;;
40373;SDS011;26079;45.958;12.492;2023-06-22T04:34:03;23.25;;;21.13;;
40373;SDS011;26079;45.958;12.492;2023-06-22T04:36:34;25.50;;;21.90;;
40373;SDS011;26079;45.958;12.492;2023-06-22T04:39:03;25.33;;;23.08;;
40373;SDS011;26079;45.958;12.492;2023-06-22T04:41:30;22.80;;;20.63;;
40373;SDS011;26079;45.958;12.492;2023-06-22T04:44:16;26.33;;;22.73;;
40373;SDS011;26079;45.958;12.492;2023-06-22T04:46:53;38.10;;;23.88;;
40373;SDS011;26079;45.958;12.492;2023-06-22T04:49:24;26.92;;;22.45;;
40373;SDS011;26079;45.958;12.492;2023-06-22T04:51:57;24.88;;;22.23;;
40373;SDS011;26079;45.958;12.492;2023-06-22T04:54:23;25.45;;;23.00;;
40373;SDS011;26079;45.958;12.492;2023-06-22T04:56:49;27.48;;;24.48;;
40373;SDS011;26079;45.958;12.492;2023-06-22T04:59:21;26.33;;;24.02;;
40373;SDS011;26079;45.958;12.492;2023-06-22T05:01:53;25.77;;;23.08;;
40373;SDS011;26079;45.958;12.492;2023-06-22T05:04:23;26.58;;;23.83;;
40373;SDS011;26079;45.958;12.492;2023-06-22T05:06:49;44.00;;;23.58;;
40373;SDS011;26079;45.958;12.492;2023-06-22T05:09:15;28.58;;;23.08;;
40373;SDS011;26079;45.958;12.492;2023-06-22T05:11:42;26.55;;;23.75;;
40373;SDS011;26079;45.958;12.492;2023-06-22T05:14:08;31.13;;;26.55;;
40373;SDS011;26079;45.958;12.492;2023-06-22T05:16:34;31.60;;;27.42;;
40373;SDS011;26079;45.958;12.492;2023-06-22T05:19:01;28.73;;;24.92;;
40373;SDS011;26079;45.958;12.492;2023-06-22T05:21:28;29.42;;;26.42;;
40373;SDS011;26079;45.958;12.492;2023-06-22T05:23:55;33.55;;;27.45;;
40373;SDS011;26079;45.958;12.492;2023-06-22T05:26:25;26.73;;;23.80;;
40373;SDS011;26079;45.958;12.492;2023-06-22T05:28:51;25.13;;;22.52;;
40373;SDS011;26079;45.958;12.492;2023-06-22T05:31:18;23.30;;;20.98;;
40373;SDS011;26079;45.958;12.492;2023-06-22T05:33:47;23.30;;;20.83;;
40373;SDS011;26079;45.958;12.492;2023-06-22T05:36:14;22.92;;;20.92;;
40373;SDS011;26079;45.958;12.492;2023-06-22T05:38:40;26.38;;;21.05;;
40373;SDS011;26079;45.958;12.492;2023-06-22T05:41:06;23.05;;;19.80;;
40373;SDS011;26079;45.958;12.492;2023-06-22T05:43:32;31.55;;;21.90;;
40373;SDS011;26079;45.958;12.492;2023-06-22T05:45:59;23.60;;;19.67;;
40373;SDS011;26079;45.958;12.492;2023-06-22T05:48:26;25.45;;;20.08;;
40373;SDS011;26079;45.958;12.492;2023-06-22T05:50:52;27.23;;;20.95;;
40373;SDS011;26079;45.958;12.492;2023-06-22T05:53:18;22.02;;;19.75;;
40373;SDS011;26079;45.958;12.492;2023-06-22T05:55:44;31.92;;;22.80;;
40373;SDS011;26079;45.958;12.492;2023-06-22T05:58:10;34.28;;;27.27;;
40373;SDS011;26079;45.958;12.492;2023-06-22T06:00:36;29.75;;;27.15;;
40373;SDS011;26079;45.958;12.492;2023-06-22T06:03:01;31.20;;;27.95;;
40373;SDS011;26079;45.958;12.492;2023-06-22T06:05:32;34.58;;;29.10;;
40373;SDS011;26079;45.958;12.492;2023-06-22T06:07:59;35.60;;;29.75;;
40373;SDS011;26079;45.958;12.492;2023-06-22T06:10:26;32.65;;;28.08;;
40373;SDS011;26079;45.958;12.492;2023-06-22T06:12:54;32.38;;;26.52;;
40373;SDS011;26079;45.958;12.492;2023-06-22T06:15:20;40.72;;;27.13;;
40373;SDS011;26079;45.958;12.492;2023-06-22T06:17:50;28.30;;;25.52;;
40373;SDS011;26079;45.958;12.492;2023-06-22T06:20:20;29.83;;;26.67;;
40373;SDS011;26079;45.958;12.492;2023-06-22T06:22:47;31.25;;;24.02;;
40373;SDS011;26079;45.958;12.492;2023-06-22T06:25:13;28.75;;;26.13;;
40373;SDS011;26079;45.958;12.492;2023-06-22T06:27:43;29.10;;;25.80;;
40373;SDS011;26079;45.958;12.492;2023-06-22T06:30:13;27.70;;;25.30;;
40373;SDS011;26079;45.958;12.492;2023-06-22T06:32:40;27.23;;;24.38;;
40373;SDS011;26079;45.958;12.492;2023-06-22T06:35:07;32.00;;;25.35;;
40373;SDS011;26079;45.958;12.492;2023-06-22T06:37:38;28.85;;;25.40;;
40373;SDS011;26079;45.958;12.492;2023-06-22T06:40:06;29.73;;;24.90;;
40373;SDS011;26079;45.958;12.492;2023-06-22T06:42:42;33.35;;;24.92;;
40373;SDS011;26079;45.958;12.492;2023-06-22T06:45:12;26.60;;;23.98;;
40373;SDS011;26079;45.958;12.492;2023-06-22T06:47:48;28.15;;;25.17;;
40373;SDS011;26079;45.958;12.492;2023-06-22T06:50:15;27.88;;;25.00;;
40373;SDS011;26079;45.958;12.492;2023-06-22T06:52:41;27.10;;;23.48;;
40373;SDS011;26079;45.958;12.492;2023-06-22T06:55:07;26.08;;;23.48;;
40373;SDS011;26079;45.958;12.492;2023-06-22T06:57:36;28.15;;;25.55;;
40373;SDS011;26079;45.958;12.492;2023-06-22T07:00:07;26.58;;;23.98;;
40373;SDS011;26079;45.958;12.492;2023-06-22T07:02:37;25.45;;;22.83;;
40373;SDS011;26079;45.958;12.492;2023-06-22T07:05:04;26.00;;;23.05;;
40373;SDS011;26079;45.958;12.492;2023-06-22T07:07:30;28.10;;;24.83;;
40373;SDS011;26079;45.958;12.492;2023-06-22T07:09:56;31.58;;;21.13;;
40373;SDS011;26079;45.958;12.492;2023-06-22T07:12:22;26.95;;;22.17;;
40373;SDS011;26079;45.958;12.492;2023-06-22T07:14:48;25.27;;;22.02;;
40373;SDS011;26079;45.958;12.492;2023-06-22T07:17:15;25.23;;;22.92;;
40373;SDS011;26079;45.958;12.492;2023-06-22T07:19:40;24.02;;;21.48;;
40373;SDS011;26079;45.958;12.492;2023-06-22T07:22:07;24.52;;;20.92;;
40373;SDS011;26079;45.958;12.492;2023-06-22T07:24:33;24.88;;;21.58;;
40373;SDS011;26079;45.958;12.492;2023-06-22T07:26:58;29.33;;;23.67;;
40373;SDS011;26079;45.958;12.492;2023-06-22T07:29:25;23.88;;;21.85;;
40373;SDS011;26079;45.958;12.492;2023-06-22T07:31:52;27.77;;;22.83;;
40373;SDS011;26079;45.958;12.492;2023-06-22T07:34:18;33.75;;;24.33;;
40373;SDS011;26079;45.958;12.492;2023-06-22T07:36:44;26.50;;;24.20;;
40373;SDS011;26079;45.958;12.492;2023-06-22T07:39:10;27.05;;;24.25;;
40373;SDS011;26079;45.958;12.492;2023-06-22T07:41:36;26.52;;;23.77;;
40373;SDS011;26079;45.958;12.492;2023-06-22T07:44:03;28.30;;;23.77;;
40373;SDS011;26079;45.958;12.492;2023-06-22T07:46:30;46.03;;;24.52;;
40373;SDS011;26079;45.958;12.492;2023-06-22T07:48:56;29.27;;;26.10;;
40373;SDS011;26079;45.958;12.492;2023-06-22T07:51:22;27.48;;;24.70;;
40373;SDS011;26079;45.958;12.492;2023-06-22T07:53:48;33.25;;;25.00;;
40373;SDS011;26079;45.958;12.492;2023-06-22T07:56:14;27.42;;;24.83;;
40373;SDS011;26079;45.958;12.492;2023-06-22T07:58:44;28.02;;;25.02;;
40373;SDS011;26079;45.958;12.492;2023-06-22T08:01:11;27.40;;;24.50;;
40373;SDS011;26079;45.958;12.492;2023-06-22T08:03:37;29.90;;;26.83;;
40373;SDS011;26079;45.958;12.492;2023-06-22T08:06:03;31.27;;;25.95;;
40373;SDS011;26079;45.958;12.492;2023-06-22T08:08:28;30.15;;;26.02;;
40373;SDS011;26079;45.958;12.492;2023-06-22T08:10:54;31.20;;;24.33;;
40373;SDS011;26079;45.958;12.492;2023-06-22T08:13:20;30.35;;;24.63;;
40373;SDS011;26079;45.958;12.492;2023-06-22T08:15:46;25.70;;;23.02;;
40373;SDS011;26079;45.958;12.492;2023-06-22T08:18:11;27.85;;;24.15;;
40373;SDS011;26079;45.958;12.492;2023-06-22T08:20:37;30.92;;;24.23;;
40373;SDS011;26079;45.958;12.492;2023-06-22T08:23:03;31.83;;;24.08;;
40373;SDS011;26079;45.958;12.492;2023-06-22T08:25:34;26.98;;;24.30;;
40373;SDS011;26079;45.958;12.492;2023-06-22T08:28:01;29.83;;;25.70;;
40373;SDS011;26079;45.958;12.492;2023-06-22T08:30:27;29.88;;;26.95;;
40373;SDS011;26079;45.958;12.492;2023-06-22T08:32:53;29.52;;;25.77;;
40373;SDS011;26079;45.958;12.492;2023-06-22T08:35:20;33.25;;;24.88;;
40373;SDS011;26079;45.958;12.492;2023-06-22T08:37:47;26.13;;;23.48;;
40373;SDS011;26079;45.958;12.492;2023-06-22T08:40:17;25.15;;;22.58;;
40373;SDS011;26079;45.958;12.492;2023-06-22T08:42:44;30.52;;;24.45;;
40373;SDS011;26079;45.958;12.492;2023-06-22T08:45:11;28.80;;;25.92;;
40373;SDS011;26079;45.958;12.492;2023-06-22T08:47:37;28.13;;;25.58;;
40373;SDS011;26079;45.958;12.492;2023-06-22T08:50:04;38.63;;;28.42;;
40373;SDS011;26079;45.958;12.492;2023-06-22T08:52:31;39.17;;;28.85;;
40373;SDS011;26079;45.958;12.492;2023-06-22T08:54:57;30.90;;;25.95;;
40373;SDS011;26079;45.958;12.492;2023-06-22T08:57:26;26.13;;;23.42;;
40373;SDS011;26079;45.958;12.492;2023-06-22T08:59:52;27.38;;;24.52;;
40373;SDS011;26079;45.958;12.492;2023-06-22T09:02:18;38.40;;;28.00;;
40373;SDS011;26079;45.958;12.492;2023-06-22T09:04:45;38.42;;;25.27;;
40373;SDS011;26079;45.958;12.492;2023-06-22T09:07:11;33.53;;;26.73;;
40373;SDS011;26079;45.958;12.492;2023-06-22T09:09:37;33.95;;;27.10;;
40373;SDS011;26079;45.958;12.492;2023-06-22T09:12:03;33.15;;;28.52;;
40373;SDS011;26079;45.958;12.492;2023-06-22T09:14:29;34.25;;;30.60;;
40373;SDS011;26079;45.958;12.492;2023-06-22T09:16:55;39.35;;;30.80;;
40373;SDS011;26079;45.958;12.492;2023-06-22T09:19:20;32.78;;;29.45;;
40373;SDS011;26079;45.958;12.492;2023-06-22T09:21:46;33.70;;;30.60;;
40373;SDS011;26079;45.958;12.492;2023-06-22T09:24:12;32.78;;;29.75;;
40373;SDS011;26079;45.958;12.492;2023-06-22T09:26:38;34.35;;;30.63;;
40373;SDS011;26079;45.958;12.492;2023-06-22T09:29:06;31.33;;;28.25;;
40373;SDS011;26079;45.958;12.492;2023-06-22T09:31:32;33.35;;;29.88;;
40373;SDS011;26079;45.958;12.492;2023-06-22T09:33:58;38.35;;;26.33;;
40373;SDS011;26079;45.958;12.492;2023-06-22T09:36:23;30.58;;;27.35;;
40373;SDS011;26079;45.958;12.492;2023-06-22T09:38:49;31.35;;;27.40;;
40373;SDS011;26079;45.958;12.492;2023-06-22T09:41:23;30.27;;;26.35;;
40373;SDS011;26079;45.958;12.492;2023-06-22T09:43:49;30.17;;;27.02;;
40373;SDS011;26079;45.958;12.492;2023-06-22T09:46:16;28.38;;;25.65;;
40373;SDS011;26079;45.958;12.492;2023-06-22T09:48:43;33.45;;;26.08;;
40373;SDS011;26079;45.958;12.492;2023-06-22T09:51:09;27.60;;;24.67;;
40373;SDS011;26079;45.958;12.492;2023-06-22T09:53:34;26.88;;;24.50;;
40373;SDS011;26079;45.958;12.492;2023-06-22T09:56:01;24.92;;;22.70;;
40373;SDS011;26079;45.958;12.492;2023-06-22T09:58:27;33.33;;;25.05;;
40373;SDS011;26079;45.958;12.492;2023-06-22T10:00:53;27.52;;;24.95;;
40373;SDS011;26079;45.958;12.492;2023-06-22T10:03:19;24.50;;;21.98;;
40373;SDS011;26079;45.958;12.492;2023-06-22T10:05:45;32.00;;;24.27;;
40373;SDS011;26079;45.958;12.492;2023-06-22T10:08:11;26.33;;;21.73;;
40373;SDS011;26079;45.958;12.492;2023-06-22T10:10:37;22.60;;;20.38;;
40373;SDS011;26079;45.958;12.492;2023-06-22T10:13:07;25.58;;;20.73;;
40373;SDS011;26079;45.958;12.492;2023-06-22T10:15:35;21.98;;;19.90;;
40373;SDS011;26079;45.958;12.492;2023-06-22T10:18:01;21.20;;;17.92;;
40373;SDS011;26079;45.958;12.492;2023-06-22T10:20:27;22.17;;;19.45;;
40373;SDS011;26079;45.958;12.492;2023-06-22T10:22:53;23.17;;;20.27;;
40373;SDS011;26079;45.958;12.492;2023-06-22T10:25:19;28.65;;;19.70;;
40373;SDS011;26079;45.958;12.492;2023-06-22T10:27:45;21.00;;;18.85;;
40373;SDS011;26079;45.958;12.492;2023-06-22T10:30:11;25.45;;;20.25;;
40373;SDS011;26079;45.958;12.492;2023-06-22T10:32:38;24.50;;;20.25;;
40373;SDS011;26079;45.958;12.492;2023-06-22T10:35:04;23.50;;;19.48;;
40373;SDS011;26079;45.958;12.492;2023-06-22T10:37:31;23.38;;;19.80;;
40373;SDS011;26079;45.958;12.492;2023-06-22T10:39:56;24.95;;;20.20;;
40373;SDS011;26079;45.958;12.492;2023-06-22T10:42:22;21.63;;;19.42;;
40373;SDS011;26079;45.958;12.492;2023-06-22T10:44:48;22.60;;;20.35;;
40373;SDS011;26079;45.958;12.492;2023-06-22T10:47:14;21.23;;;18.77;;
40373;SDS011;26079;45.958;12.492;2023-06-22T10:49:39;22.70;;;18.95;;
40373;SDS011;26079;45.958;12.492;2023-06-22T10:52:06;21.17;;;18.95;;
40373;SDS011;26079;45.958;12.492;2023-06-22T10:54:33;20.52;;;18.45;;
40373;SDS011;26079;45.958;12.492;2023-06-22T10:57:02;22.77;;;20.67;;
40373;SDS011;26079;45.958;12.492;2023-06-22T10:59:28;21.58;;;19.33;;
40373;SDS011;26079;45.958;12.492;2023-06-22T11:01:55;21.63;;;16.83;;
40373;SDS011;26079;45.958;12.492;2023-06-22T11:04:21;29.23;;;16.40;;
40373;SDS011;26079;45.958;12.492;2023-06-22T11:06:47;23.40;;;16.92;;
40373;SDS011;26079;45.958;12.492;2023-06-22T11:09:14;18.83;;;16.95;;
40373;SDS011;26079;45.958;12.492;2023-06-22T11:11:45;19.40;;;17.42;;
40373;SDS011;26079;45.958;12.492;2023-06-22T11:14:11;23.40;;;18.30;;
40373;SDS011;26079;45.958;12.492;2023-06-22T11:16:37;21.73;;;17.33;;
40373;SDS011;26079;45.958;12.492;2023-06-22T11:19:04;20.88;;;16.95;;
40373;SDS011;26079;45.958;12.492;2023-06-22T11:21:30;22.33;;;15.80;;
40373;SDS011;26079;45.958;12.492;2023-06-22T11:23:57;17.75;;;13.73;;
40373;SDS011;26079;45.958;12.492;2023-06-22T11:26:24;25.55;;;15.15;;
40373;SDS011;26079;45.958;12.492;2023-06-22T11:28:52;20.88;;;15.18;;
40373;SDS011;26079;45.958;12.492;2023-06-22T11:31:18;27.15;;;13.98;;
40373;SDS011;26079;45.958;12.492;2023-06-22T11:33:43;20.80;;;15.13;;
40373;SDS011;26079;45.958;12.492;2023-06-22T11:36:13;21.05;;;14.50;;
40373;SDS011;26079;45.958;12.492;2023-06-22T11:38:39;17.65;;;15.18;;
40373;SDS011;26079;45.958;12.492;2023-06-22T11:41:05;22.10;;;14.90;;
40373;SDS011;26079;45.958;12.492;2023-06-22T11:43:31;21.90;;;13.98;;
40373;SDS011;26079;45.958;12.492;2023-06-22T11:45:57;17.23;;;13.27;;
40373;SDS011;26079;45.958;12.492;2023-06-22T11:48:26;18.48;;;13.80;;
40373;SDS011;26079;45.958;12.492;2023-06-22T11:50:52;16.95;;;14.63;;
40373;SDS011;26079;45.958;12.492;2023-06-22T11:53:19;17.02;;;15.25;;
40373;SDS011;26079;45.958;12.492;2023-06-22T11:55:45;19.05;;;14.70;;
40373;SDS011;26079;45.958;12.492;2023-06-22T11:58:11;24.38;;;13.98;;
40373;SDS011;26079;45.958;12.492;2023-06-22T12:00:37;25.95;;;15.85;;
40373;SDS011;26079;45.958;12.492;2023-06-22T12:03:02;25.80;;;14.50;;
40373;SDS011;26079;45.958;12.492;2023-06-22T12:05:28;20.67;;;16.75;;
40373;SDS011;26079;45.958;12.492;2023-06-22T12:07:54;17.25;;;15.38;;
40373;SDS011;26079;45.958;12.492;2023-06-22T12:10:20;19.55;;;15.02;;
40373;SDS011;26079;45.958;12.492;2023-06-22T12:12:55;27.58;;;15.05;;
40373;SDS011;26079;45.958;12.492;2023-06-22T12:15:20;23.40;;;15.65;;
40373;SDS011;26079;45.958;12.492;2023-06-22T12:17:46;17.38;;;14.40;;
40373;SDS011;26079;45.958;12.492;2023-06-22T12:20:13;40.47;;;17.40;;
40373;SDS011;26079;45.958;12.492;2023-06-22T12:22:39;19.45;;;15.60;;
40373;SDS011;26079;45.958;12.492;2023-06-22T12:25:06;23.13;;;15.07;;
40373;SDS011;26079;45.958;12.492;2023-06-22T12:27:32;15.35;;;13.80;;
40373;SDS011;26079;45.958;12.492;2023-06-22T12:29:58;18.70;;;15.10;;
40373;SDS011;26079;45.958;12.492;2023-06-22T12:32:24;22.85;;;14.48;;
40373;SDS011;26079;45.958;12.492;2023-06-22T12:34:50;19.73;;;13.05;;
40373;SDS011;26079;45.958;12.492;2023-06-22T12:37:16;17.45;;;13.38;;
40373;SDS011;26079;45.958;12.492;2023-06-22T12:39:43;16.55;;;13.60;;
40373;SDS011;26079;45.958;12.492;2023-06-22T12:42:09;17.65;;;12.43;;
40373;SDS011;26079;45.958;12.492;2023-06-22T12:44:37;19.85;;;12.98;;
40373;SDS011;26079;45.958;12.492;2023-06-22T12:47:04;16.55;;;13.43;;
40373;SDS011;26079;45.958;12.492;2023-06-22T12:49:30;14.60;;;12.18;;
40373;SDS011;26079;45.958;12.492;2023-06-22T12:51:55;25.40;;;13.98;;
40373;SDS011;26079;45.958;12.492;2023-06-22T12:54:21;16.35;;;11.43;;
40373;SDS011;26079;45.958;12.492;2023-06-22T12:56:47;27.13;;;13.70;;
40373;SDS011;26079;45.958;12.492;2023-06-22T12:59:13;15.80;;;12.60;;
40373;SDS011;26079;45.958;12.492;2023-06-22T13:01:38;14.05;;;12.75;;
40373;SDS011;26079;45.958;12.492;2023-06-22T13:04:04;15.20;;;12.63;;
40373;SDS011;26079;45.958;12.492;2023-06-22T13:06:30;21.40;;;13.13;;
40373;SDS011;26079;45.958;12.492;2023-06-22T13:08:56;16.88;;;12.43;;
40373;SDS011;26079;45.958;12.492;2023-06-22T13:11:21;17.33;;;12.35;;
40373;SDS011;26079;45.958;12.492;2023-06-22T13:13:47;12.40;;;11.10;;
40373;SDS011;26079;45.958;12.492;2023-06-22T13:16:13;14.65;;;11.68;;
40373;SDS011;26079;45.958;12.492;2023-06-22T13:18:38;20.38;;;13.27;;
40373;SDS011;26079;45.958;12.492;2023-06-22T13:21:04;12.93;;;11.73;;
40373;SDS011;26079;45.958;12.492;2023-06-22T13:23:30;16.42;;;12.48;;
40373;SDS011;26079;45.958;12.492;2023-06-22T13:25:57;16.67;;;13.25;;
40373;SDS011;26079;45.958;12.492;2023-06-22T13:28:23;17.95;;;12.07;;
40373;SDS011;26079;45.958;12.492;2023-06-22T13:30:49;15.82;;;10.60;;
40373;SDS011;26079;45.958;12.492;2023-06-22T13:33:15;18.88;;;12.82;;
40373;SDS011;26079;45.958;12.492;2023-06-22T13:35:40;12.82;;;10.98;;
40373;SDS011;26079;45.958;12.492;2023-06-22T13:38:09;16.67;;;11.38;;
40373;SDS011;26079;45.958;12.492;2023-06-22T13:40:35;14.10;;;12.27;;
40373;SDS011;26079;45.958;12.492;2023-06-22T13:43:02;17.02;;;12.02;;
40373;SDS011;26079;45.958;12.492;2023-06-22T13:45:29;13.23;;;11.13;;
40373;SDS011;26079;45.958;12.492;2023-06-22T13:47:54;18.92;;;10.55;;
40373;SDS011;26079;45.958;12.492;2023-06-22T13:50:20;18.83;;;11.25;;
40373;SDS011;26079;45.958;12.492;2023-06-22T13:52:46;19.67;;;11.88;;
40373;SDS011;26079;45.958;12.492;2023-06-22T13:55:11;14.40;;;10.77;;
40373;SDS011;26079;45.958;12.492;2023-06-22T13:57:39;12.43;;;10.75;;
40373;SDS011;26079;45.958;12.492;2023-06-22T14:00:05;14.88;;;10.85;;
40373;SDS011;26079;45.958;12.492;2023-06-22T14:02:32;14.48;;;10.82;;
40373;SDS011;26079;45.958;12.492;2023-06-22T14:04:58;18.52;;;10.80;;
40373;SDS011;26079;45.958;12.492;2023-06-22T14:07:23;13.73;;;12.38;;
40373;SDS011;26079;45.958;12.492;2023-06-22T14:09:49;15.07;;;11.98;;
40373;SDS011;26079;45.958;12.492;2023-06-22T14:12:15;13.73;;;10.77;;
40373;SDS011;26079;45.958;12.492;2023-06-22T14:14:43;23.65;;;12.52;;